sensor_id;sensor_type;location;lat;lon;timestamp;temperature;humidity
11188;DHT22;5650;52.700;7.306;2023-05-07T00:02:27;13.10;99.90
11188;DHT22;5650;52.700;7.306;2023-05-07T00:05:00;13.00;99.90
11188;DHT22;5650;52.700;7.306;2023-05-07T00:07:35;13.00;99.90
11188;DHT22;5650;52.700;7.306;2023-05-07T00:10:02;12.90;99.90
11188;DHT22;5650;52.700;7.306;2023-05-07T00:12:29;12.80;99.90
11188;DHT22;5650;52.700;7.306;2023-05-07T00:14:59;12.80;99.90
11188;DHT22;5650;52.700;7.306;2023-05-07T00:17:26;12.80;99.90
11188;DHT22;5650;52.700;7.306;2023-05-07T00:19:53;12.80;99.90
11188;DHT22;5650;52.700;7.306;2023-05-07T00:22:23;12.70;99.90
11188;DHT22;5650;52.700;7.306;2023-05-07T00:24:52;12.70;99.90
11188;DHT22;5650;52.700;7.306;2023-05-07T00:27:25;12.70;99.90
11188;DHT22;5650;52.700;7.306;2023-05-07T00:30:01;12.60;99.90
11188;DHT22;5650;52.700;7.306;2023-05-07T00:32:28;12.60;99.90
11188;DHT22;5650;52.700;7.306;2023-05-07T00:35:01;12.60;99.90
11188;DHT22;5650;52.700;7.306;2023-05-07T00:37:42;12.60;99.90
11188;DHT22;5650;52.700;7.306;2023-05-07T00:40:13;12.50;99.90
11188;DHT22;5650;52.700;7.306;2023-05-07T00:42:46;12.50;99.90
11188;DHT22;5650;52.700;7.306;2023-05-07T00:45:24;12.50;99.90
11188;DHT22;5650;52.700;7.306;2023-05-07T00:47:54;12.50;99.90
11188;DHT22;5650;52.700;7.306;2023-05-07T00:50:21;12.50;99.90
11188;DHT22;5650;52.700;7.306;2023-05-07T00:52:51;12.50;99.90
11188;DHT22;5650;52.700;7.306;2023-05-07T00:55:20;12.40;99.90
11188;DHT22;5650;52.700;7.306;2023-05-07T00:58:05;12.40;99.90
11188;DHT22;5650;52.700;7.306;2023-05-07T01:00:38;12.40;99.90
11188;DHT22;5650;52.700;7.306;2023-05-07T01:03:11;12.30;99.90
11188;DHT22;5650;52.700;7.306;2023-05-07T01:05:42;12.30;99.90
11188;DHT22;5650;52.700;7.306;2023-05-07T01:08:14;12.30;99.90
11188;DHT22;5650;52.700;7.306;2023-05-07T01:10:46;12.30;99.90
11188;DHT22;5650;52.700;7.306;2023-05-07T01:13:14;12.30;99.90
11188;DHT22;5650;52.700;7.306;2023-05-07T01:15:42;12.30;99.90
11188;DHT22;5650;52.700;7.306;2023-05-07T01:18:10;12.30;99.90
11188;DHT22;5650;52.700;7.306;2023-05-07T01:20:44;12.30;99.90
11188;DHT22;5650;52.700;7.306;2023-05-07T01:23:17;12.30;99.90
11188;DHT22;5650;52.700;7.306;2023-05-07T01:25:56;12.20;99.90
11188;DHT22;5650;52.700;7.306;2023-05-07T01:28:24;12.20;99.90
11188;DHT22;5650;52.700;7.306;2023-05-07T01:31:07;12.20;99.90
11188;DHT22;5650;52.700;7.306;2023-05-07T01:33:47;12.10;99.90
11188;DHT22;5650;52.700;7.306;2023-05-07T01:36:17;12.10;99.90
11188;DHT22;5650;52.700;7.306;2023-05-07T01:38:47;12.10;99.90
11188;DHT22;5650;52.700;7.306;2023-05-07T01:41:17;12.00;99.90
11188;DHT22;5650;52.700;7.306;2023-05-07T01:43:46;12.00;99.90
11188;DHT22;5650;52.700;7.306;2023-05-07T01:46:19;12.00;99.90
11188;DHT22;5650;52.700;7.306;2023-05-07T01:48:50;12.00;99.90
11188;DHT22;5650;52.700;7.306;2023-05-07T01:51:20;11.90;99.90
11188;DHT22;5650;52.700;7.306;2023-05-07T01:53:49;11.90;99.90
11188;DHT22;5650;52.700;7.306;2023-05-07T01:56:19;11.90;99.90
11188;DHT22;5650;52.700;7.306;2023-05-07T01:58:50;11.80;99.90
11188;DHT22;5650;52.700;7.306;2023-05-07T02:01:24;11.80;99.90
11188;DHT22;5650;52.700;7.306;2023-05-07T02:04:05;11.80;99.90
11188;DHT22;5650;52.700;7.306;2023-05-07T02:06:37;11.80;99.90
11188;DHT22;5650;52.700;7.306;2023-05-07T02:09:15;11.80;99.90
11188;DHT22;5650;52.700;7.306;2023-05-07T02:11:45;11.70;99.90
11188;DHT22;5650;52.700;7.306;2023-05-07T02:14:15;11.70;99.90
11188;DHT22;5650;52.700;7.306;2023-05-07T02:16:42;11.70;99.90
11188;DHT22;5650;52.700;7.306;2023-05-07T02:19:24;11.70;99.90
11188;DHT22;5650;52.700;7.306;2023-05-07T02:21:52;11.80;99.90
11188;DHT22;5650;52.700;7.306;2023-05-07T02:24:21;11.70;99.90
11188;DHT22;5650;52.700;7.306;2023-05-07T02:26:51;11.80;99.90
11188;DHT22;5650;52.700;7.306;2023-05-07T02:29:19;11.70;99.90
11188;DHT22;5650;52.700;7.306;2023-05-07T02:31:52;11.70;99.90
11188;DHT22;5650;52.700;7.306;2023-05-07T02:34:25;11.70;99.90
11188;DHT22;5650;52.700;7.306;2023-05-07T02:36:52;11.70;99.90
11188;DHT22;5650;52.700;7.306;2023-05-07T02:39:20;11.70;99.90
11188;DHT22;5650;52.700;7.306;2023-05-07T02:41:48;11.70;99.90
11188;DHT22;5650;52.700;7.306;2023-05-07T02:44:18;11.70;99.90
11188;DHT22;5650;52.700;7.306;2023-05-07T02:46:45;11.70;99.90
11188;DHT22;5650;52.700;7.306;2023-05-07T02:49:12;11.70;99.90
11188;DHT22;5650;52.700;7.306;2023-05-07T02:51:39;11.70;99.90
11188;DHT22;5650;52.700;7.306;2023-05-07T02:54:06;11.70;99.90
11188;DHT22;5650;52.700;7.306;2023-05-07T02:56:35;11.70;99.90
11188;DHT22;5650;52.700;7.306;2023-05-07T02:59:02;11.70;99.90
11188;DHT22;5650;52.700;7.306;2023-05-07T03:01:41;11.70;99.90
11188;DHT22;5650;52.700;7.306;2023-05-07T03:04:16;11.70;99.90
11188;DHT22;5650;52.700;7.306;2023-05-07T03:06:43;11.70;99.90
11188;DHT22;5650;52.700;7.306;2023-05-07T03:09:20;11.70;99.90
11188;DHT22;5650;52.700;7.306;2023-05-07T03:11:54;11.70;99.90
11188;DHT22;5650;52.700;7.306;2023-05-07T03:14:23;11.60;99.90
11188;DHT22;5650;52.700;7.306;2023-05-07T03:16:50;11.60;99.90
11188;DHT22;5650;52.700;7.306;2023-05-07T03:19:20;11.60;99.90
11188;DHT22;5650;52.700;7.306;2023-05-07T03:21:47;11.60;99.90
11188;DHT22;5650;52.700;7.306;2023-05-07T03:24:18;11.60;99.90
11188;DHT22;5650;52.700;7.306;2023-05-07T03:26:45;11.60;99.90
11188;DHT22;5650;52.700;7.306;2023-05-07T03:29:20;11.60;99.90
11188;DHT22;5650;52.700;7.306;2023-05-07T03:31:49;11.60;99.90
11188;DHT22;5650;52.700;7.306;2023-05-07T03:34:17;11.50;99.90
11188;DHT22;5650;52.700;7.306;2023-05-07T03:36:54;11.50;99.90
11188;DHT22;5650;52.700;7.306;2023-05-07T03:39:24;11.50;99.90
11188;DHT22;5650;52.700;7.306;2023-05-07T03:41:57;11.50;99.90
11188;DHT22;5650;52.700;7.306;2023-05-07T03:44:29;11.50;99.90
11188;DHT22;5650;52.700;7.306;2023-05-07T03:46:56;11.50;99.90
11188;DHT22;5650;52.700;7.306;2023-05-07T03:49:32;11.50;99.90
11188;DHT22;5650;52.700;7.306;2023-05-07T03:52:02;11.50;99.90
11188;DHT22;5650;52.700;7.306;2023-05-07T03:54:45;11.50;99.90
11188;DHT22;5650;52.700;7.306;2023-05-07T03:57:12;11.50;99.90
11188;DHT22;5650;52.700;7.306;2023-05-07T03:59:48;11.50;99.90
11188;DHT22;5650;52.700;7.306;2023-05-07T04:02:15;11.50;99.90
11188;DHT22;5650;52.700;7.306;2023-05-07T04:04:43;11.50;99.90
11188;DHT22;5650;52.700;7.306;2023-05-07T04:07:17;11.40;99.90
11188;DHT22;5650;52.700;7.306;2023-05-07T04:09:47;11.40;99.90
11188;DHT22;5650;52.700;7.306;2023-05-07T04:12:18;11.40;99.90
11188;DHT22;5650;52.700;7.306;2023-05-07T04:15:02;11.40;99.90
11188;DHT22;5650;52.700;7.306;2023-05-07T04:17:29;11.40;99.90
11188;DHT22;5650;52.700;7.306;2023-05-07T04:19:59;11.40;99.90
11188;DHT22;5650;52.700;7.306;2023-05-07T04:22:32;11.40;99.90
11188;DHT22;5650;52.700;7.306;2023-05-07T04:25:18;11.40;99.90
11188;DHT22;5650;52.700;7.306;2023-05-07T04:27:45;11.40;99.90
11188;DHT22;5650;52.700;7.306;2023-05-07T04:30:19;11.40;99.90
11188;DHT22;5650;52.700;7.306;2023-05-07T04:32:56;11.40;99.90
11188;DHT22;5650;52.700;7.306;2023-05-07T04:35:23;11.30;99.90
11188;DHT22;5650;52.700;7.306;2023-05-07T04:37:51;11.40;99.90
11188;DHT22;5650;52.700;7.306;2023-05-07T04:40:21;11.40;99.90
11188;DHT22;5650;52.700;7.306;2023-05-07T04:42:48;11.40;99.90
11188;DHT22;5650;52.700;7.306;2023-05-07T04:45:20;11.40;99.90
11188;DHT22;5650;52.700;7.306;2023-05-07T04:47:47;11.40;99.90
11188;DHT22;5650;52.700;7.306;2023-05-07T04:50:14;11.40;99.90
11188;DHT22;5650;52.700;7.306;2023-05-07T04:52:43;11.40;99.90
11188;DHT22;5650;52.700;7.306;2023-05-07T04:55:13;11.40;99.90
11188;DHT22;5650;52.700;7.306;2023-05-07T04:57:44;11.50;99.90
11188;DHT22;5650;52.700;7.306;2023-05-07T05:00:23;11.50;99.90
11188;DHT22;5650;52.700;7.306;2023-05-07T05:02:50;11.50;99.90
11188;DHT22;5650;52.700;7.306;2023-05-07T05:05:18;11.60;99.90
11188;DHT22;5650;52.700;7.306;2023-05-07T05:07:45;11.60;99.90
11188;DHT22;5650;52.700;7.306;2023-05-07T05:10:15;11.60;99.90
11188;DHT22;5650;52.700;7.306;2023-05-07T05:12:42;11.70;99.90
11188;DHT22;5650;52.700;7.306;2023-05-07T05:15:12;11.70;99.90
11188;DHT22;5650;52.700;7.306;2023-05-07T05:17:41;11.70;99.90
11188;DHT22;5650;52.700;7.306;2023-05-07T05:20:14;11.70;99.90
11188;DHT22;5650;52.700;7.306;2023-05-07T05:22:44;11.70;99.90
11188;DHT22;5650;52.700;7.306;2023-05-07T05:25:11;11.70;99.90
11188;DHT22;5650;52.700;7.306;2023-05-07T05:27:50;11.70;99.90
11188;DHT22;5650;52.700;7.306;2023-05-07T05:30:17;11.70;99.90
11188;DHT22;5650;52.700;7.306;2023-05-07T05:32:46;11.70;99.90
11188;DHT22;5650;52.700;7.306;2023-05-07T05:35:13;11.70;99.90
11188;DHT22;5650;52.700;7.306;2023-05-07T05:37:48;11.80;99.90
11188;DHT22;5650;52.700;7.306;2023-05-07T05:40:15;11.70;99.90
11188;DHT22;5650;52.700;7.306;2023-05-07T05:42:48;11.80;99.90
11188;DHT22;5650;52.700;7.306;2023-05-07T05:45:19;11.80;99.90
11188;DHT22;5650;52.700;7.306;2023-05-07T05:47:47;11.80;99.90
11188;DHT22;5650;52.700;7.306;2023-05-07T05:50:20;11.80;99.90
11188;DHT22;5650;52.700;7.306;2023-05-07T05:52:51;11.90;99.90
11188;DHT22;5650;52.700;7.306;2023-05-07T05:55:21;11.90;99.90
11188;DHT22;5650;52.700;7.306;2023-05-07T05:57:48;11.90;99.90
11188;DHT22;5650;52.700;7.306;2023-05-07T06:00:22;12.00;99.90
11188;DHT22;5650;52.700;7.306;2023-05-07T06:02:50;12.00;99.90
11188;DHT22;5650;52.700;7.306;2023-05-07T06:05:20;12.00;99.90
11188;DHT22;5650;52.700;7.306;2023-05-07T06:07:53;12.00;99.90
11188;DHT22;5650;52.700;7.306;2023-05-07T06:10:21;12.10;99.90
11188;DHT22;5650;52.700;7.306;2023-05-07T06:12:51;12.00;99.90
11188;DHT22;5650;52.700;7.306;2023-05-07T06:15:24;12.10;99.90
11188;DHT22;5650;52.700;7.306;2023-05-07T06:17:55;12.10;99.90
11188;DHT22;5650;52.700;7.306;2023-05-07T06:20:29;12.10;99.90
11188;DHT22;5650;52.700;7.306;2023-05-07T06:23:11;12.10;99.90
11188;DHT22;5650;52.700;7.306;2023-05-07T06:25:48;12.10;99.90
11188;DHT22;5650;52.700;7.306;2023-05-07T06:28:16;12.10;99.90
11188;DHT22;5650;52.700;7.306;2023-05-07T06:30:44;12.10;99.90
11188;DHT22;5650;52.700;7.306;2023-05-07T06:33:12;12.20;99.90
11188;DHT22;5650;52.700;7.306;2023-05-07T06:35:45;12.30;99.90
11188;DHT22;5650;52.700;7.306;2023-05-07T06:38:15;12.30;99.90
11188;DHT22;5650;52.700;7.306;2023-05-07T06:40:51;12.40;99.90
11188;DHT22;5650;52.700;7.306;2023-05-07T06:43:33;12.40;99.90
11188;DHT22;5650;52.700;7.306;2023-05-07T06:46:00;12.50;99.90
11188;DHT22;5650;52.700;7.306;2023-05-07T06:48:35;12.60;99.90
11188;DHT22;5650;52.700;7.306;2023-05-07T06:51:02;12.60;99.90
11188;DHT22;5650;52.700;7.306;2023-05-07T06:53:30;12.60;99.90
11188;DHT22;5650;52.700;7.306;2023-05-07T06:55:57;12.60;99.90
11188;DHT22;5650;52.700;7.306;2023-05-07T06:58:26;12.70;99.90
11188;DHT22;5650;52.700;7.306;2023-05-07T07:00:54;12.60;99.90
11188;DHT22;5650;52.700;7.306;2023-05-07T07:03:21;12.70;99.90
11188;DHT22;5650;52.700;7.306;2023-05-07T07:05:53;12.70;99.90
11188;DHT22;5650;52.700;7.306;2023-05-07T07:08:23;12.70;99.90
11188;DHT22;5650;52.700;7.306;2023-05-07T07:10:56;12.70;99.90
11188;DHT22;5650;52.700;7.306;2023-05-07T07:13:24;12.70;99.90
11188;DHT22;5650;52.700;7.306;2023-05-07T07:16:00;12.70;99.90
11188;DHT22;5650;52.700;7.306;2023-05-07T07:18:30;12.70;99.90
11188;DHT22;5650;52.700;7.306;2023-05-07T07:20:58;12.70;99.90
11188;DHT22;5650;52.700;7.306;2023-05-07T07:23:26;12.80;99.90
11188;DHT22;5650;52.700;7.306;2023-05-07T07:25:56;12.90;99.90
11188;DHT22;5650;52.700;7.306;2023-05-07T07:28:29;12.90;99.90
11188;DHT22;5650;52.700;7.306;2023-05-07T07:30:56;13.00;99.90
11188;DHT22;5650;52.700;7.306;2023-05-07T07:33:24;13.00;99.90
11188;DHT22;5650;52.700;7.306;2023-05-07T07:35:51;13.10;99.90
11188;DHT22;5650;52.700;7.306;2023-05-07T07:38:20;13.10;99.90
11188;DHT22;5650;52.700;7.306;2023-05-07T07:40:50;13.20;99.90
11188;DHT22;5650;52.700;7.306;2023-05-07T07:43:20;13.30;99.90
11188;DHT22;5650;52.700;7.306;2023-05-07T07:45:47;13.30;99.90
11188;DHT22;5650;52.700;7.306;2023-05-07T07:48:14;13.30;99.90
11188;DHT22;5650;52.700;7.306;2023-05-07T07:50:44;13.30;99.90
11188;DHT22;5650;52.700;7.306;2023-05-07T07:53:22;13.30;99.90
11188;DHT22;5650;52.700;7.306;2023-05-07T07:55:49;13.30;99.90
11188;DHT22;5650;52.700;7.306;2023-05-07T07:58:32;13.40;99.90
11188;DHT22;5650;52.700;7.306;2023-05-07T08:01:01;13.50;99.90
11188;DHT22;5650;52.700;7.306;2023-05-07T08:03:37;13.50;99.90
11188;DHT22;5650;52.700;7.306;2023-05-07T08:06:05;13.50;99.90
11188;DHT22;5650;52.700;7.306;2023-05-07T08:08:33;13.50;99.90
11188;DHT22;5650;52.700;7.306;2023-05-07T08:11:01;13.50;99.90
11188;DHT22;5650;52.700;7.306;2023-05-07T08:13:28;13.50;99.90
11188;DHT22;5650;52.700;7.306;2023-05-07T08:15:56;13.60;99.90
11188;DHT22;5650;52.700;7.306;2023-05-07T08:18:23;13.70;99.90
11188;DHT22;5650;52.700;7.306;2023-05-07T08:20:51;13.70;99.90
11188;DHT22;5650;52.700;7.306;2023-05-07T08:23:29;13.80;99.90
11188;DHT22;5650;52.700;7.306;2023-05-07T08:26:00;13.80;99.90
11188;DHT22;5650;52.700;7.306;2023-05-07T08:28:28;13.90;99.90
11188;DHT22;5650;52.700;7.306;2023-05-07T08:30:58;14.00;99.90
11188;DHT22;5650;52.700;7.306;2023-05-07T08:33:26;14.00;99.90
11188;DHT22;5650;52.700;7.306;2023-05-07T08:35:53;14.00;99.90
11188;DHT22;5650;52.700;7.306;2023-05-07T08:38:21;14.00;99.90
11188;DHT22;5650;52.700;7.306;2023-05-07T08:40:51;14.10;99.90
11188;DHT22;5650;52.700;7.306;2023-05-07T08:43:27;14.30;99.90
11188;DHT22;5650;52.700;7.306;2023-05-07T08:46:04;14.60;99.90
11188;DHT22;5650;52.700;7.306;2023-05-07T08:48:35;14.70;99.90
11188;DHT22;5650;52.700;7.306;2023-05-07T08:51:05;15.00;99.90
11188;DHT22;5650;52.700;7.306;2023-05-07T08:53:45;15.30;99.90
11188;DHT22;5650;52.700;7.306;2023-05-07T08:56:14;15.70;99.90
11188;DHT22;5650;52.700;7.306;2023-05-07T08:58:46;16.10;99.90
11188;DHT22;5650;52.700;7.306;2023-05-07T09:01:15;16.50;99.90
11188;DHT22;5650;52.700;7.306;2023-05-07T09:03:46;16.60;99.90
11188;DHT22;5650;52.700;7.306;2023-05-07T09:06:14;16.50;99.90
11188;DHT22;5650;52.700;7.306;2023-05-07T09:08:48;16.50;99.90
11188;DHT22;5650;52.700;7.306;2023-05-07T09:11:16;16.30;99.90
11188;DHT22;5650;52.700;7.306;2023-05-07T09:13:44;16.30;99.90
11188;DHT22;5650;52.700;7.306;2023-05-07T09:16:15;16.30;99.90
11188;DHT22;5650;52.700;7.306;2023-05-07T09:18:45;16.30;99.90
11188;DHT22;5650;52.700;7.306;2023-05-07T09:21:22;16.30;99.90
11188;DHT22;5650;52.700;7.306;2023-05-07T09:23:50;16.30;99.90
11188;DHT22;5650;52.700;7.306;2023-05-07T09:26:21;16.30;99.90
11188;DHT22;5650;52.700;7.306;2023-05-07T09:28:51;16.40;99.90
11188;DHT22;5650;52.700;7.306;2023-05-07T09:31:19;16.40;99.90
11188;DHT22;5650;52.700;7.306;2023-05-07T09:33:46;16.40;99.90
11188;DHT22;5650;52.700;7.306;2023-05-07T09:36:21;16.50;99.90
11188;DHT22;5650;52.700;7.306;2023-05-07T09:38:49;16.70;99.90
11188;DHT22;5650;52.700;7.306;2023-05-07T09:41:16;16.80;99.90
11188;DHT22;5650;52.700;7.306;2023-05-07T09:43:44;16.80;99.90
11188;DHT22;5650;52.700;7.306;2023-05-07T09:46:14;16.60;99.90
11188;DHT22;5650;52.700;7.306;2023-05-07T09:48:50;16.40;99.90
11188;DHT22;5650;52.700;7.306;2023-05-07T09:51:24;16.40;99.90
11188;DHT22;5650;52.700;7.306;2023-05-07T09:54:05;16.30;99.90
11188;DHT22;5650;52.700;7.306;2023-05-07T09:56:35;16.20;99.90
11188;DHT22;5650;52.700;7.306;2023-05-07T09:59:12;16.10;99.90
11188;DHT22;5650;52.700;7.306;2023-05-07T10:01:44;16.10;99.90
11188;DHT22;5650;52.700;7.306;2023-05-07T10:04:15;16.10;99.90
11188;DHT22;5650;52.700;7.306;2023-05-07T10:06:46;16.10;99.90
11188;DHT22;5650;52.700;7.306;2023-05-07T10:09:14;16.20;99.90
11188;DHT22;5650;52.700;7.306;2023-05-07T10:11:45;16.20;99.90
11188;DHT22;5650;52.700;7.306;2023-05-07T10:14:22;16.20;99.90
11188;DHT22;5650;52.700;7.306;2023-05-07T10:16:53;16.20;99.90
11188;DHT22;5650;52.700;7.306;2023-05-07T10:19:22;16.20;99.90
11188;DHT22;5650;52.700;7.306;2023-05-07T10:22:01;16.30;99.90
11188;DHT22;5650;52.700;7.306;2023-05-07T10:24:45;16.50;99.90
11188;DHT22;5650;52.700;7.306;2023-05-07T10:27:18;16.60;99.90
11188;DHT22;5650;52.700;7.306;2023-05-07T10:29:52;16.60;99.90
11188;DHT22;5650;52.700;7.306;2023-05-07T10:32:35;16.60;99.90
11188;DHT22;5650;52.700;7.306;2023-05-07T10:35:10;16.60;99.90
11188;DHT22;5650;52.700;7.306;2023-05-07T10:37:45;16.70;99.90
11188;DHT22;5650;52.700;7.306;2023-05-07T10:40:25;16.70;99.90
11188;DHT22;5650;52.700;7.306;2023-05-07T10:43:04;16.70;99.90
11188;DHT22;5650;52.700;7.306;2023-05-07T10:45:44;16.80;99.90
11188;DHT22;5650;52.700;7.306;2023-05-07T10:48:32;16.80;99.90
11188;DHT22;5650;52.700;7.306;2023-05-07T10:51:21;16.80;99.90
11188;DHT22;5650;52.700;7.306;2023-05-07T10:53:48;16.70;99.90
11188;DHT22;5650;52.700;7.306;2023-05-07T10:56:26;16.80;99.90
11188;DHT22;5650;52.700;7.306;2023-05-07T10:59:35;16.90;99.90
11188;DHT22;5650;52.700;7.306;2023-05-07T11:02:07;17.10;99.90
11188;DHT22;5650;52.700;7.306;2023-05-07T11:05:20;17.20;99.90
11188;DHT22;5650;52.700;7.306;2023-05-07T11:07:54;17.50;99.90
11188;DHT22;5650;52.700;7.306;2023-05-07T11:10:22;17.60;99.90
11188;DHT22;5650;52.700;7.306;2023-05-07T11:12:53;17.80;99.90
11188;DHT22;5650;52.700;7.306;2023-05-07T11:15:51;17.90;99.90
11188;DHT22;5650;52.700;7.306;2023-05-07T11:18:18;18.00;99.90
11188;DHT22;5650;52.700;7.306;2023-05-07T11:21:00;18.10;99.90
11188;DHT22;5650;52.700;7.306;2023-05-07T11:23:59;18.00;99.90
11188;DHT22;5650;52.700;7.306;2023-05-07T11:26:48;18.10;99.90
11188;DHT22;5650;52.700;7.306;2023-05-07T11:29:22;18.10;99.90
11188;DHT22;5650;52.700;7.306;2023-05-07T11:31:52;18.20;99.90
11188;DHT22;5650;52.700;7.306;2023-05-07T11:34:23;18.30;99.90
11188;DHT22;5650;52.700;7.306;2023-05-07T11:36:58;18.20;99.90
11188;DHT22;5650;52.700;7.306;2023-05-07T11:39:30;18.10;99.90
11188;DHT22;5650;52.700;7.306;2023-05-07T11:42:01;18.10;99.90
11188;DHT22;5650;52.700;7.306;2023-05-07T11:44:41;18.10;99.90
11188;DHT22;5650;52.700;7.306;2023-05-07T11:47:10;18.00;99.90
11188;DHT22;5650;52.700;7.306;2023-05-07T11:50:03;17.90;99.90
11188;DHT22;5650;52.700;7.306;2023-05-07T11:52:35;17.90;99.90
11188;DHT22;5650;52.700;7.306;2023-05-07T11:55:05;17.90;99.90
11188;DHT22;5650;52.700;7.306;2023-05-07T11:57:42;18.00;99.90
11188;DHT22;5650;52.700;7.306;2023-05-07T12:00:11;18.10;99.90
11188;DHT22;5650;52.700;7.306;2023-05-07T12:02:44;18.10;99.90
11188;DHT22;5650;52.700;7.306;2023-05-07T12:05:14;18.00;99.90
11188;DHT22;5650;52.700;7.306;2023-05-07T12:07:43;18.00;99.90
11188;DHT22;5650;52.700;7.306;2023-05-07T12:10:11;17.80;99.90
11188;DHT22;5650;52.700;7.306;2023-05-07T12:12:46;17.80;99.90
11188;DHT22;5650;52.700;7.306;2023-05-07T12:15:15;17.80;99.90
11188;DHT22;5650;52.700;7.306;2023-05-07T12:17:43;17.70;99.90
11188;DHT22;5650;52.700;7.306;2023-05-07T12:20:28;17.70;99.90
11188;DHT22;5650;52.700;7.306;2023-05-07T12:23:00;17.60;99.90
11188;DHT22;5650;52.700;7.306;2023-05-07T12:25:30;17.60;99.90
11188;DHT22;5650;52.700;7.306;2023-05-07T12:28:00;17.70;99.90
11188;DHT22;5650;52.700;7.306;2023-05-07T12:30:39;17.60;99.90
11188;DHT22;5650;52.700;7.306;2023-05-07T12:33:10;17.70;99.90
11188;DHT22;5650;52.700;7.306;2023-05-07T12:35:38;17.80;99.90
11188;DHT22;5650;52.700;7.306;2023-05-07T12:38:10;18.00;99.90
11188;DHT22;5650;52.700;7.306;2023-05-07T12:40:39;18.30;99.90
11188;DHT22;5650;52.700;7.306;2023-05-07T12:43:06;18.40;99.90
11188;DHT22;5650;52.700;7.306;2023-05-07T12:45:40;18.30;99.90
11188;DHT22;5650;52.700;7.306;2023-05-07T12:48:10;18.40;99.90
11188;DHT22;5650;52.700;7.306;2023-05-07T12:50:40;18.50;99.90
11188;DHT22;5650;52.700;7.306;2023-05-07T12:53:09;18.50;99.90
11188;DHT22;5650;52.700;7.306;2023-05-07T12:55:45;18.60;99.90
11188;DHT22;5650;52.700;7.306;2023-05-07T12:58:16;18.70;99.90
11188;DHT22;5650;52.700;7.306;2023-05-07T13:00:45;18.70;99.90
11188;DHT22;5650;52.700;7.306;2023-05-07T13:03:21;18.60;99.90
11188;DHT22;5650;52.700;7.306;2023-05-07T13:05:57;18.70;99.90
11188;DHT22;5650;52.700;7.306;2023-05-07T13:08:28;18.70;99.90
11188;DHT22;5650;52.700;7.306;2023-05-07T13:10:56;18.50;99.90
11188;DHT22;5650;52.700;7.306;2023-05-07T13:13:33;18.50;99.90
11188;DHT22;5650;52.700;7.306;2023-05-07T13:16:09;18.50;99.90
11188;DHT22;5650;52.700;7.306;2023-05-07T13:18:39;18.40;99.90
11188;DHT22;5650;52.700;7.306;2023-05-07T13:21:09;18.30;99.90
11188;DHT22;5650;52.700;7.306;2023-05-07T13:23:40;18.10;99.90
11188;DHT22;5650;52.700;7.306;2023-05-07T13:26:16;18.00;99.90
11188;DHT22;5650;52.700;7.306;2023-05-07T13:28:43;17.80;99.90
11188;DHT22;5650;52.700;7.306;2023-05-07T13:31:10;17.80;99.90
11188;DHT22;5650;52.700;7.306;2023-05-07T13:33:37;17.70;99.90
11188;DHT22;5650;52.700;7.306;2023-05-07T13:36:13;17.60;99.90
11188;DHT22;5650;52.700;7.306;2023-05-07T13:38:42;17.70;99.90
11188;DHT22;5650;52.700;7.306;2023-05-07T13:41:15;17.70;99.90
11188;DHT22;5650;52.700;7.306;2023-05-07T13:43:45;17.80;99.90
11188;DHT22;5650;52.700;7.306;2023-05-07T13:46:12;17.80;99.90
11188;DHT22;5650;52.700;7.306;2023-05-07T13:48:39;17.80;99.90
11188;DHT22;5650;52.700;7.306;2023-05-07T13:51:08;17.80;99.90
11188;DHT22;5650;52.700;7.306;2023-05-07T13:53:38;17.90;99.90
11188;DHT22;5650;52.700;7.306;2023-05-07T13:56:07;18.00;99.90
11188;DHT22;5650;52.700;7.306;2023-05-07T13:58:34;18.10;99.90
11188;DHT22;5650;52.700;7.306;2023-05-07T14:01:02;18.10;99.90
11188;DHT22;5650;52.700;7.306;2023-05-07T14:03:36;18.20;99.90
11188;DHT22;5650;52.700;7.306;2023-05-07T14:06:11;18.30;99.90
11188;DHT22;5650;52.700;7.306;2023-05-07T14:08:40;18.40;99.90
11188;DHT22;5650;52.700;7.306;2023-05-07T14:11:15;18.60;99.90
11188;DHT22;5650;52.700;7.306;2023-05-07T14:13:51;18.80;99.90
11188;DHT22;5650;52.700;7.306;2023-05-07T14:16:18;18.80;99.90
11188;DHT22;5650;52.700;7.306;2023-05-07T14:18:50;18.80;99.90
11188;DHT22;5650;52.700;7.306;2023-05-07T14:21:20;18.90;99.90
11188;DHT22;5650;52.700;7.306;2023-05-07T14:23:48;18.90;99.90
11188;DHT22;5650;52.700;7.306;2023-05-07T14:26:19;18.90;99.90
11188;DHT22;5650;52.700;7.306;2023-05-07T14:28:49;19.10;99.90
11188;DHT22;5650;52.700;7.306;2023-05-07T14:31:16;19.20;99.90
11188;DHT22;5650;52.700;7.306;2023-05-07T14:33:49;19.20;99.90
11188;DHT22;5650;52.700;7.306;2023-05-07T14:36:17;19.20;99.90
11188;DHT22;5650;52.700;7.306;2023-05-07T14:38:51;19.20;99.90
11188;DHT22;5650;52.700;7.306;2023-05-07T14:41:21;19.20;99.90
11188;DHT22;5650;52.700;7.306;2023-05-07T14:43:48;19.20;99.90
11188;DHT22;5650;52.700;7.306;2023-05-07T14:46:17;19.10;99.90
11188;DHT22;5650;52.700;7.306;2023-05-07T14:48:44;19.00;99.90
11188;DHT22;5650;52.700;7.306;2023-05-07T14:51:15;19.00;99.90
11188;DHT22;5650;52.700;7.306;2023-05-07T14:53:45;18.90;99.90
11188;DHT22;5650;52.700;7.306;2023-05-07T14:56:15;18.80;99.90
11188;DHT22;5650;52.700;7.306;2023-05-07T14:58:45;18.70;99.90
11188;DHT22;5650;52.700;7.306;2023-05-07T15:01:13;18.70;99.90
11188;DHT22;5650;52.700;7.306;2023-05-07T15:03:43;18.70;99.90
11188;DHT22;5650;52.700;7.306;2023-05-07T15:06:15;18.70;99.90
11188;DHT22;5650;52.700;7.306;2023-05-07T15:08:42;18.70;99.90
11188;DHT22;5650;52.700;7.306;2023-05-07T15:11:09;18.60;99.90
11188;DHT22;5650;52.700;7.306;2023-05-07T15:13:41;18.50;99.90
11188;DHT22;5650;52.700;7.306;2023-05-07T15:16:15;18.50;99.90
11188;DHT22;5650;52.700;7.306;2023-05-07T15:18:45;18.50;99.90
11188;DHT22;5650;52.700;7.306;2023-05-07T15:21:15;18.50;99.90
11188;DHT22;5650;52.700;7.306;2023-05-07T15:23:57;18.50;99.90
11188;DHT22;5650;52.700;7.306;2023-05-07T15:26:24;18.40;99.90
11188;DHT22;5650;52.700;7.306;2023-05-07T15:28:51;18.50;99.90
11188;DHT22;5650;52.700;7.306;2023-05-07T15:31:31;18.40;99.90
11188;DHT22;5650;52.700;7.306;2023-05-07T15:34:05;18.40;99.90
11188;DHT22;5650;52.700;7.306;2023-05-07T15:36:40;18.40;99.90
11188;DHT22;5650;52.700;7.306;2023-05-07T15:39:07;18.40;99.90
11188;DHT22;5650;52.700;7.306;2023-05-07T15:41:35;18.30;99.90
11188;DHT22;5650;52.700;7.306;2023-05-07T15:44:03;18.30;99.90
11188;DHT22;5650;52.700;7.306;2023-05-07T15:46:32;18.30;99.90
11188;DHT22;5650;52.700;7.306;2023-05-07T15:49:02;18.20;99.90
11188;DHT22;5650;52.700;7.306;2023-05-07T15:51:30;18.20;99.90
11188;DHT22;5650;52.700;7.306;2023-05-07T15:54:06;18.10;99.90
11188;DHT22;5650;52.700;7.306;2023-05-07T15:56:33;18.00;99.90
11188;DHT22;5650;52.700;7.306;2023-05-07T15:59:01;18.00;99.90
11188;DHT22;5650;52.700;7.306;2023-05-07T16:01:36;18.00;99.90
11188;DHT22;5650;52.700;7.306;2023-05-07T16:04:10;18.00;99.90
11188;DHT22;5650;52.700;7.306;2023-05-07T16:06:43;18.00;99.90
11188;DHT22;5650;52.700;7.306;2023-05-07T16:09:17;18.10;99.90
11188;DHT22;5650;52.700;7.306;2023-05-07T16:11:47;18.10;99.90
11188;DHT22;5650;52.700;7.306;2023-05-07T16:14:15;18.00;99.90